createdAt,value
2023-05-20T00:01:20.986Z,102785.53
2023-05-20T00:03:48.914Z,102779.38
2023-05-20T00:06:16.837Z,102787.25
2023-05-20T00:08:44.597Z,102784.59
2023-05-20T00:11:12.407Z,102782.41
2023-05-20T00:13:41.557Z,102783.78
2023-05-20T00:16:09.500Z,102772.59
2023-05-20T00:18:37.286Z,102770.72
2023-05-20T00:21:05.293Z,102771.72
2023-05-20T00:23:33.083Z,102770.41
2023-05-20T00:26:01.111Z,102763.22
2023-05-20T00:28:28.907Z,102769.50
2023-05-20T00:30:58.089Z,102765.84
2023-05-20T00:33:26.054Z,102766.91
2023-05-20T00:35:53.832Z,102755.94
2023-05-20T00:38:21.597Z,102761.97
2023-05-20T00:40:49.372Z,102754.34
2023-05-20T00:43:17.124Z,102756.13
2023-05-20T00:45:44.980Z,102747.34
2023-05-20T00:48:14.485Z,102753.47
2023-05-20T00:50:42.324Z,102739.94
2023-05-20T00:53:11.136Z,102752.09
2023-05-20T00:55:39.203Z,102745.94
2023-05-20T00:58:07.228Z,102751.72
2023-05-20T01:00:34.992Z,102743.06
2023-05-20T01:03:02.928Z,102750.59
2023-05-20T01:05:32.267Z,102743.44
2023-05-20T01:08:00.218Z,102751.91
2023-05-20T01:10:31.380Z,102746.72
2023-05-20T01:13:02.850Z,102733.25
2023-05-20T01:15:31.597Z,102728.69
2023-05-20T01:18:02.654Z,102709.63
2023-05-20T01:20:33.186Z,102714.00
2023-05-20T01:23:02.636Z,102706.41
2023-05-20T01:25:30.657Z,102699.41
2023-05-20T01:27:58.904Z,102707.03
2023-05-20T01:30:31.556Z,102710.28
2023-05-20T01:33:03.222Z,102701.78
2023-05-20T01:35:31.304Z,102698.44
2023-05-20T01:38:00.769Z,102697.97
2023-05-20T01:40:30.648Z,102690.66
2023-05-20T01:43:00.196Z,102689.28
2023-05-20T01:45:28.070Z,102663.41
2023-05-20T01:47:56.069Z,102665.25
2023-05-20T01:50:23.928Z,102644.13
2023-05-20T01:52:51.663Z,102642.13
2023-05-20T01:55:19.567Z,102644.56
2023-05-20T01:57:48.672Z,102629.97
2023-05-20T02:00:16.733Z,102607.09
2023-05-20T02:02:44.659Z,102605.38
2023-05-20T02:05:12.546Z,102596.78
2023-05-20T02:07:40.318Z,102607.22
2023-05-20T02:10:09.073Z,102601.75
2023-05-20T02:12:36.950Z,102578.19
2023-05-20T02:15:07.493Z,102559.13
2023-05-20T02:17:35.338Z,102528.34
2023-05-20T02:20:05.885Z,102536.19
2023-05-20T02:22:33.669Z,102528.06
2023-05-20T02:25:01.432Z,102534.84
2023-05-20T02:27:29.188Z,102541.38
2023-05-20T02:29:58.161Z,102509.00
2023-05-20T02:32:28.972Z,102481.00
2023-05-20T02:34:56.871Z,102493.84
2023-05-20T02:37:24.646Z,102463.94
2023-05-20T02:39:52.439Z,102460.75
2023-05-20T02:42:20.304Z,102454.31
2023-05-20T02:44:48.063Z,102455.16
2023-05-20T02:47:15.918Z,102419.22
2023-05-20T02:49:45.140Z,102403.63
2023-05-20T02:52:12.872Z,102371.97
2023-05-20T02:54:40.694Z,102341.91
2023-05-20T02:57:08.456Z,102335.78
2023-05-20T02:59:36.206Z,102316.84
2023-05-20T03:02:04.975Z,102308.06
2023-05-20T03:04:32.783Z,102305.69
2023-05-20T03:07:01.948Z,102298.31
2023-05-20T03:09:29.897Z,102300.63
2023-05-20T03:11:57.649Z,102281.25
2023-05-20T03:14:25.387Z,102279.88
2023-05-20T03:16:55.400Z,102295.56
2023-05-20T03:19:23.726Z,102303.09
2023-05-20T03:21:51.700Z,102311.16
2023-05-20T03:24:23.425Z,102297.69
2023-05-20T03:26:51.224Z,102309.69
2023-05-20T03:29:19.070Z,102301.91
2023-05-20T03:31:46.992Z,102291.63
2023-05-20T03:34:14.806Z,102293.44
2023-05-20T03:36:42.594Z,102291.22
2023-05-20T03:39:10.343Z,102278.75
2023-05-20T03:41:39.474Z,102274.66
2023-05-20T03:44:07.236Z,102280.00
2023-05-20T03:46:35.055Z,102272.38
2023-05-20T03:49:03.119Z,102269.81
2023-05-20T03:51:31.188Z,102260.06
2023-05-20T03:53:58.935Z,102263.44
2023-05-20T03:56:27.453Z,102262.59
2023-05-20T03:58:56.589Z,102264.28
2023-05-20T04:01:25.686Z,102263.59
2023-05-20T04:03:53.454Z,102270.34
2023-05-20T04:06:22.562Z,102260.19
2023-05-20T04:08:50.901Z,102256.75
2023-05-20T04:11:18.691Z,102260.66
2023-05-20T04:13:46.416Z,102264.28
2023-05-20T04:16:15.869Z,102271.38
2023-05-20T04:18:46.020Z,102289.22
2023-05-20T04:21:13.888Z,102276.09
2023-05-20T04:23:41.812Z,102279.25
2023-05-20T04:26:09.562Z,102297.25
2023-05-20T04:28:37.815Z,102299.81
2023-05-20T04:31:06.034Z,102297.97
2023-05-20T04:33:37.852Z,102296.69
2023-05-20T04:36:07.637Z,102291.91
2023-05-20T04:38:36.109Z,102288.94
2023-05-20T04:41:03.988Z,102295.16
2023-05-20T04:43:31.930Z,102279.41
2023-05-20T04:46:01.411Z,102299.28
2023-05-20T04:48:29.278Z,102305.91
2023-05-20T04:50:58.398Z,102319.00
2023-05-20T04:53:26.227Z,102309.03
2023-05-20T04:55:56.868Z,102308.97
2023-05-20T04:58:25.428Z,102311.06
2023-05-20T05:00:53.542Z,102329.78
2023-05-20T05:03:21.474Z,102329.22
2023-05-20T05:05:49.305Z,102348.94
2023-05-20T05:08:18.441Z,102384.50
2023-05-20T05:10:46.674Z,102399.72
2023-05-20T05:13:14.522Z,102397.53
2023-05-20T05:15:42.422Z,102411.94
2023-05-20T05:18:10.554Z,102402.66
2023-05-20T05:20:38.393Z,102417.41
2023-05-20T05:23:06.217Z,102437.25
2023-05-20T05:25:35.861Z,102449.59
2023-05-20T05:28:03.838Z,102455.25
2023-05-20T05:30:31.614Z,102492.41
2023-05-20T05:32:59.509Z,102525.41
2023-05-20T05:35:27.494Z,102555.44
2023-05-20T05:37:55.277Z,102568.16
2023-05-20T05:40:23.293Z,102542.63
2023-05-20T05:42:52.414Z,102571.34
2023-05-20T05:45:20.295Z,102580.13
2023-05-20T05:47:48.144Z,102581.84
2023-05-20T05:50:15.925Z,102615.09
2023-05-20T05:52:43.674Z,102644.75
2023-05-20T05:55:12.781Z,102648.91
2023-05-20T05:57:40.660Z,102631.91
2023-05-20T06:00:11.656Z,102655.09
2023-05-20T06:02:39.495Z,102645.47
2023-05-20T06:05:08.665Z,102657.31
2023-05-20T06:07:36.679Z,102654.38
2023-05-20T06:10:04.952Z,102679.78
2023-05-20T06:12:32.715Z,102686.94
2023-05-20T06:15:00.895Z,102686.28
2023-05-20T06:17:30.118Z,102701.75
2023-05-20T06:19:57.908Z,102697.69
2023-05-20T06:22:25.677Z,102701.31
2023-05-20T06:24:56.528Z,102710.59
2023-05-20T06:27:24.272Z,102704.53
2023-05-20T06:29:52.016Z,102701.44
2023-05-20T06:32:19.838Z,102701.16
2023-05-20T06:34:48.961Z,102697.78
2023-05-20T06:37:16.798Z,102712.00
2023-05-20T06:39:44.884Z,102713.59
2023-05-20T06:42:12.657Z,102724.56
2023-05-20T06:44:40.447Z,102722.22
2023-05-20T06:47:08.194Z,102719.09
2023-05-20T06:49:36.348Z,102719.38
2023-05-20T06:52:06.958Z,102694.72
2023-05-20T06:54:39.953Z,102694.91
2023-05-20T06:57:07.818Z,102692.69
2023-05-20T06:59:35.908Z,102701.34
2023-05-20T07:02:04.032Z,102720.44
2023-05-20T07:04:31.920Z,102700.56
2023-05-20T07:06:59.703Z,102696.63
2023-05-20T07:09:29.070Z,102704.66
2023-05-20T07:11:56.832Z,102690.50
2023-05-20T07:14:24.715Z,102704.47
2023-05-20T07:16:52.447Z,102706.19
2023-05-20T07:19:20.233Z,102705.88
2023-05-20T07:21:49.735Z,102715.44
2023-05-20T07:24:17.752Z,102716.47
2023-05-20T07:26:47.070Z,102716.34
2023-05-20T07:29:14.819Z,102708.41
2023-05-20T07:31:42.602Z,102713.63
2023-05-20T07:34:10.433Z,102718.00
2023-05-20T07:36:38.341Z,102712.16
2023-05-20T07:39:09.507Z,102720.94
2023-05-20T07:41:40.233Z,102718.31
2023-05-20T07:44:11.263Z,102723.38
2023-05-20T07:46:39.712Z,102720.00
2023-05-20T07:49:07.608Z,102716.16
2023-05-20T07:51:35.557Z,102719.75
2023-05-20T07:54:03.434Z,102725.94
2023-05-20T07:56:31.918Z,102727.06
2023-05-20T07:59:00.943Z,102732.84
2023-05-20T08:01:30.843Z,102731.59
2023-05-20T08:03:58.732Z,102724.66
2023-05-20T08:06:29.460Z,102731.69
2023-05-20T08:08:57.619Z,102727.47
2023-05-20T08:11:25.620Z,102717.72
2023-05-20T08:13:53.411Z,102717.03
2023-05-20T08:16:22.685Z,102720.56
2023-05-20T08:18:52.071Z,102724.88
2023-05-20T08:21:19.875Z,102717.19
2023-05-20T08:23:47.604Z,102718.19
2023-05-20T08:26:15.697Z,102713.59
2023-05-20T08:28:43.418Z,102715.91
2023-05-20T08:31:11.339Z,102720.16
2023-05-20T08:33:39.137Z,102708.97
2023-05-20T08:36:08.930Z,102715.00
2023-05-20T08:38:37.123Z,102714.75
2023-05-20T08:41:05.676Z,102708.69
2023-05-20T08:43:33.521Z,102710.06
2023-05-20T08:46:03.090Z,102698.72
2023-05-20T08:48:31.945Z,102699.72
2023-05-20T08:50:59.938Z,102697.38
2023-05-20T08:53:29.118Z,102686.25
2023-05-20T08:56:00.876Z,102694.75
2023-05-20T08:58:29.456Z,102702.28
2023-05-20T09:00:58.753Z,102693.25
2023-05-20T09:03:27.026Z,102692.78
2023-05-20T09:05:55.402Z,102685.00
2023-05-20T09:08:27.058Z,102692.78
2023-05-20T09:10:56.196Z,102687.41
2023-05-20T09:13:25.395Z,102681.41
2023-05-20T09:15:53.217Z,102681.13
2023-05-20T09:18:21.025Z,102674.00
2023-05-20T09:20:52.918Z,102673.22
2023-05-20T09:23:21.660Z,102673.44
2023-05-20T09:25:51.909Z,102674.97
2023-05-20T09:28:24.178Z,102674.75
2023-05-20T09:30:52.306Z,102672.94
2023-05-20T09:33:20.064Z,102669.50
2023-05-20T09:35:48.312Z,102671.91
2023-05-20T09:38:17.075Z,102667.25
2023-05-20T09:40:46.634Z,102674.31
2023-05-20T09:43:14.459Z,102662.50
2023-05-20T09:45:43.988Z,102661.84
2023-05-20T09:48:13.218Z,102668.44
2023-05-20T09:50:42.823Z,102669.59
2023-05-20T09:53:12.213Z,102671.50
2023-05-20T09:55:40.402Z,102667.41
2023-05-20T09:58:11.129Z,102662.06
2023-05-20T10:00:38.951Z,102667.34
2023-05-20T10:03:08.294Z,102672.31
2023-05-20T10:05:39.769Z,102675.25
2023-05-20T10:08:33.134Z,102670.09
2023-05-20T10:11:12.804Z,102669.88
2023-05-20T10:13:56.897Z,102657.78
2023-05-20T10:16:34.932Z,102654.81
2023-05-20T10:19:13.098Z,102663.75
2023-05-20T10:21:41.051Z,102652.34
2023-05-20T10:24:09.927Z,102652.38
2023-05-20T10:26:38.431Z,102653.31
2023-05-20T10:29:16.518Z,102650.56
2023-05-20T10:31:50.681Z,102648.16
2023-05-20T10:34:21.240Z,102645.78
2023-05-20T10:36:59.426Z,102644.50
2023-05-20T10:39:28.504Z,102644.50
2023-05-20T10:42:08.236Z,102646.00
2023-05-20T10:44:43.478Z,102640.34
2023-05-20T10:49:46.173Z,102629.69
2023-05-20T10:52:14.599Z,102623.38
2023-05-20T10:54:46.732Z,102627.00
2023-05-20T10:57:15.666Z,102628.28
2023-05-20T10:59:43.548Z,102616.94
2023-05-20T11:02:13.656Z,102615.94
2023-05-20T11:04:45.792Z,102611.00
2023-05-20T11:07:13.867Z,102611.56
2023-05-20T11:09:50.771Z,102604.75
2023-05-20T11:12:18.604Z,102614.88
2023-05-20T11:14:47.566Z,102611.47
2023-05-20T11:17:15.374Z,102605.50
2023-05-20T11:19:43.097Z,102601.94
2023-05-20T11:22:12.278Z,102608.00
2023-05-20T11:24:40.003Z,102606.50
2023-05-20T11:27:08.054Z,102600.78
2023-05-20T11:29:36.020Z,102612.63
2023-05-20T11:32:03.832Z,102602.88
2023-05-20T11:34:36.485Z,102607.72
2023-05-20T11:37:08.468Z,102603.66
2023-05-20T11:39:39.389Z,102601.56
2023-05-20T11:42:07.348Z,102597.38
2023-05-20T11:44:35.377Z,102591.94
2023-05-20T11:47:04.491Z,102589.94
2023-05-20T11:49:40.202Z,102596.66
2023-05-20T11:52:10.284Z,102600.28
2023-05-20T11:54:39.697Z,102596.56
2023-05-20T11:57:07.653Z,102583.75
2023-05-20T11:59:36.662Z,102593.47
2023-05-20T12:02:04.568Z,102588.91
2023-05-20T12:04:32.396Z,102594.00
2023-05-20T12:07:00.210Z,102595.88
2023-05-20T12:09:27.950Z,102588.97
2023-05-20T12:11:57.114Z,102588.09
2023-05-20T12:14:24.873Z,102595.34
2023-05-20T12:16:53.654Z,102595.56
2023-05-20T12:19:21.613Z,102595.44
2023-05-20T12:21:49.469Z,102590.72
2023-05-20T12:24:17.828Z,102595.34
2023-05-20T12:26:45.601Z,102595.63
2023-05-20T12:29:14.736Z,102591.69
2023-05-20T12:31:42.545Z,102593.81
2023-05-20T12:34:10.340Z,102582.22
2023-05-20T12:36:38.190Z,102584.41
2023-05-20T12:39:06.155Z,102575.88
2023-05-20T12:41:33.905Z,102572.91
2023-05-20T12:44:01.654Z,102563.63
2023-05-20T12:46:30.858Z,102573.31
2023-05-20T12:48:58.629Z,102574.59
2023-05-20T12:51:26.391Z,102568.16
2023-05-20T12:53:54.215Z,102570.16
2023-05-20T12:56:22.276Z,102561.94
2023-05-20T12:58:50.056Z,102562.50
2023-05-20T13:01:17.887Z,102563.38
2023-05-20T13:03:48.100Z,102556.03
2023-05-20T13:06:16.687Z,102552.91
2023-05-20T13:08:45.376Z,102558.47
2023-05-20T13:11:13.146Z,102557.59
2023-05-20T13:13:41.528Z,102546.75
2023-05-20T13:16:09.578Z,102538.84
2023-05-20T13:18:37.785Z,102545.19
2023-05-20T13:21:07.290Z,102530.97
2023-05-20T13:23:35.792Z,102517.97
2023-05-20T13:26:03.979Z,102533.66
2023-05-20T13:28:31.738Z,102528.63
2023-05-20T13:30:59.566Z,102521.72
2023-05-20T13:33:27.382Z,102518.47
2023-05-20T13:35:55.238Z,102508.28
2023-05-20T13:38:24.366Z,102501.84
2023-05-20T13:40:52.293Z,102495.31
2023-05-20T13:43:20.098Z,102496.06
2023-05-20T13:45:47.945Z,102492.50
2023-05-20T13:48:16.248Z,102483.66
2023-05-20T13:50:44.019Z,102474.69
2023-05-20T13:53:13.758Z,102486.47
2023-05-20T13:55:43.138Z,102486.56
2023-05-20T13:58:10.933Z,102478.44
2023-05-20T14:00:39.107Z,102482.84
2023-05-20T14:03:09.121Z,102480.47
2023-05-20T14:05:37.121Z,102470.81
2023-05-20T14:08:05.301Z,102481.44
2023-05-20T14:10:33.180Z,102467.03
2023-05-20T14:13:02.670Z,102485.91
2023-05-20T14:15:30.645Z,102481.78
2023-05-20T14:17:58.611Z,102472.56
2023-05-20T14:20:26.593Z,102468.00
2023-05-20T14:22:54.426Z,102465.25
2023-05-20T14:25:22.234Z,102463.00
2023-05-20T14:27:50.599Z,102457.91
2023-05-20T14:30:19.766Z,102465.22
2023-05-20T14:32:47.566Z,102457.31
2023-05-20T14:35:16.438Z,102453.53
2023-05-20T14:37:44.252Z,102459.91
2023-05-20T14:40:12.981Z,102457.28
2023-05-20T14:42:40.836Z,102468.69
2023-05-20T14:45:09.907Z,102458.88
2023-05-20T14:47:40.204Z,102450.63
2023-05-20T14:50:08.497Z,102439.81
2023-05-20T14:52:36.309Z,102458.41
2023-05-20T14:55:04.339Z,102452.25
2023-05-20T14:57:32.133Z,102441.44
2023-05-20T14:59:59.910Z,102446.38
2023-05-20T15:02:27.799Z,102443.47
2023-05-20T15:04:56.997Z,102446.09
2023-05-20T15:07:24.741Z,102443.75
2023-05-20T15:09:52.494Z,102430.41
2023-05-20T15:12:20.333Z,102427.19
2023-05-20T15:14:48.050Z,102432.03
2023-05-20T15:17:15.817Z,102422.59
2023-05-20T15:19:43.548Z,102438.66
2023-05-20T15:22:12.644Z,102430.63
2023-05-20T15:24:40.476Z,102425.63
2023-05-20T15:27:08.237Z,102418.03
2023-05-20T15:29:36.746Z,102417.56
2023-05-20T15:32:06.605Z,102409.44
2023-05-20T15:34:34.773Z,102401.31
2023-05-20T15:37:02.643Z,102409.63
2023-05-20T15:39:31.786Z,102403.53
2023-05-20T15:42:02.112Z,102403.72
2023-05-20T15:44:29.990Z,102397.16
2023-05-20T15:46:57.765Z,102401.28
2023-05-20T15:49:25.599Z,102400.03
2023-05-20T15:52:03.023Z,102393.22
2023-05-20T15:54:33.347Z,102398.97
2023-05-20T15:57:02.592Z,102392.19
2023-05-20T15:59:30.480Z,102390.22
2023-05-20T16:01:58.332Z,102391.81
2023-05-20T16:04:26.185Z,102398.66
2023-05-20T16:06:54.026Z,102391.59
2023-05-20T16:09:22.128Z,102399.13
2023-05-20T16:11:51.409Z,102387.31
2023-05-20T16:14:19.167Z,102386.47
2023-05-20T16:16:46.925Z,102383.56
2023-05-20T16:19:14.817Z,102375.00
2023-05-20T16:21:42.592Z,102383.00
2023-05-20T16:24:10.418Z,102388.31
2023-05-20T16:26:38.155Z,102379.75
2023-05-20T16:29:07.414Z,102375.91
2023-05-20T16:31:35.381Z,102375.47
2023-05-20T16:34:05.046Z,102368.75
2023-05-20T16:36:32.933Z,102363.00
2023-05-20T16:39:00.792Z,102364.13
2023-05-20T16:41:28.762Z,102369.13
2023-05-20T16:43:56.593Z,102365.53
2023-05-20T16:46:25.891Z,102357.00
2023-05-20T16:48:53.668Z,102359.47
2023-05-20T16:51:21.681Z,102353.25
2023-05-20T16:53:49.439Z,102353.13
2023-05-20T16:56:17.300Z,102347.25
2023-05-20T16:58:45.059Z,102349.38
2023-05-20T17:01:12.858Z,102348.44
2023-05-20T17:03:42.020Z,102352.00
2023-05-20T17:06:10.059Z,102359.38
2023-05-20T17:08:38.105Z,102358.91
2023-05-20T17:11:05.974Z,102351.72
2023-05-20T17:13:33.716Z,102348.47
2023-05-20T17:16:01.750Z,102356.78
2023-05-20T17:18:30.016Z,102360.47
2023-05-20T17:20:59.151Z,102360.66
2023-05-20T17:23:26.913Z,102368.44
2023-05-20T17:25:54.686Z,102370.09
2023-05-20T17:28:22.479Z,102361.75
2023-05-20T17:30:50.697Z,102365.16
2023-05-20T17:33:18.605Z,102348.53
2023-05-20T17:35:46.444Z,102358.59
2023-05-20T17:38:16.058Z,102345.16
2023-05-20T17:40:44.399Z,102347.34
2023-05-20T17:43:12.171Z,102347.53
2023-05-20T17:45:39.943Z,102350.91
2023-05-20T17:48:10.072Z,102350.16
2023-05-20T17:50:39.256Z,102356.00
2023-05-20T17:53:07.122Z,102350.22
2023-05-20T17:55:36.998Z,102344.97
2023-05-20T17:58:04.946Z,102353.78
2023-05-20T18:00:34.521Z,102354.91
2023-05-20T18:03:02.862Z,102355.09
2023-05-20T18:05:30.728Z,102351.69
2023-05-20T18:07:58.495Z,102350.84
2023-05-20T18:10:26.317Z,102351.75
2023-05-20T18:12:55.651Z,102343.34
2023-05-20T18:15:23.452Z,102337.06
2023-05-20T18:17:51.250Z,102342.38
2023-05-20T18:20:19.312Z,102343.16
2023-05-20T18:22:47.146Z,102343.69
2023-05-20T18:25:15.968Z,102346.59
2023-05-20T18:27:44.229Z,102344.06
2023-05-20T18:30:13.590Z,102349.16
2023-05-20T18:32:41.404Z,102344.06
2023-05-20T18:35:09.917Z,102341.88
2023-05-20T18:37:37.716Z,102350.00
2023-05-20T18:40:06.537Z,102347.63
2023-05-20T18:42:34.376Z,102345.66
2023-05-20T18:45:02.132Z,102346.88
2023-05-20T18:47:31.465Z,102350.78
2023-05-20T18:49:59.300Z,102354.50
2023-05-20T18:52:27.060Z,102353.03
2023-05-20T18:54:54.868Z,102344.75
2023-05-20T18:57:23.523Z,102352.22
2023-05-20T18:59:51.409Z,102354.47
2023-05-20T19:02:19.241Z,102348.03
2023-05-20T19:04:48.390Z,102357.59
2023-05-20T19:07:16.408Z,102351.78
2023-05-20T19:09:44.186Z,102353.78
2023-05-20T19:12:11.995Z,102351.53
2023-05-20T19:14:39.756Z,102352.34
2023-05-20T19:17:07.728Z,102347.91
2023-05-20T19:19:36.091Z,102355.06
2023-05-20T19:22:06.453Z,102348.16
2023-05-20T19:24:34.640Z,102362.81
2023-05-20T19:27:02.821Z,102359.72
2023-05-20T19:29:30.593Z,102360.22
2023-05-20T19:31:58.502Z,102359.78
2023-05-20T19:34:26.316Z,102348.13
2023-05-20T19:36:56.765Z,102363.22
2023-05-20T19:39:26.787Z,102359.66
2023-05-20T19:41:54.641Z,102357.81
2023-05-20T19:44:24.542Z,102366.06
2023-05-20T19:46:52.821Z,102368.53
2023-05-20T19:49:20.902Z,102362.19
2023-05-20T19:51:48.684Z,102357.81
2023-05-20T19:54:16.536Z,102354.75
2023-05-20T19:56:46.061Z,102354.06
2023-05-20T19:59:14.287Z,102358.75
2023-05-20T20:01:42.975Z,102349.69
2023-05-20T20:04:10.768Z,102350.97
2023-05-20T20:06:38.586Z,102354.72
2023-05-20T20:09:06.495Z,102347.94
2023-05-20T20:11:34.256Z,102341.78
2023-05-20T20:14:03.466Z,102346.47
2023-05-20T20:16:31.323Z,102336.63
2023-05-20T20:18:59.198Z,102337.56
2023-05-20T20:21:26.973Z,102339.00
2023-05-20T20:23:54.799Z,102329.03
2023-05-20T20:26:25.988Z,102327.44
2023-05-20T20:28:54.033Z,102324.84
2023-05-20T20:31:23.153Z,102326.34
2023-05-20T20:33:51.308Z,102322.91
2023-05-20T20:36:19.076Z,102322.19
2023-05-20T20:38:47.616Z,102310.56
2023-05-20T20:41:16.800Z,102311.97
2023-05-20T20:43:45.854Z,102313.75
2023-05-20T20:46:14.848Z,102306.66
2023-05-20T20:48:45.847Z,102314.19
2023-05-20T20:51:14.318Z,102316.44
2023-05-20T20:53:42.349Z,102311.38
2023-05-20T20:56:10.523Z,102313.81
2023-05-20T20:58:39.496Z,102301.91
2023-05-20T21:01:07.741Z,102313.94
2023-05-20T21:03:36.976Z,102308.03
2023-05-20T21:06:06.186Z,102311.13
2023-05-20T21:08:34.016Z,102307.38
2023-05-20T21:11:01.847Z,102292.63
2023-05-20T21:13:29.852Z,102297.19
2023-05-20T21:15:57.902Z,102294.44
2023-05-20T21:18:25.828Z,102300.59
2023-05-20T21:20:55.103Z,102292.63
2023-05-20T21:23:24.458Z,102299.13
2023-05-20T21:25:52.204Z,102292.69
2023-05-20T21:28:19.959Z,102287.97
2023-05-20T21:30:47.726Z,102279.06
2023-05-20T21:33:15.726Z,102285.72
2023-05-20T21:35:43.686Z,102282.06
2023-05-20T21:38:13.462Z,102287.84
2023-05-20T21:40:42.631Z,102280.41
2023-05-20T21:43:10.381Z,102268.22
2023-05-20T21:45:38.225Z,102260.22
2023-05-20T21:48:07.015Z,102257.19
2023-05-20T21:50:34.806Z,102239.38
2023-05-20T21:53:02.537Z,102247.09
2023-05-20T21:55:30.526Z,102235.22
2023-05-20T21:57:59.645Z,102233.06
2023-05-20T22:00:27.411Z,102224.41
2023-05-20T22:02:55.289Z,102224.25
2023-05-20T22:05:23.126Z,102224.19
2023-05-20T22:07:51.402Z,102214.72
2023-05-20T22:10:20.882Z,102210.97
2023-05-20T22:12:50.725Z,102220.19
2023-05-20T22:15:20.068Z,102221.44
2023-05-20T22:17:48.287Z,102230.78
2023-05-20T22:20:16.047Z,102233.50
2023-05-20T22:22:43.812Z,102227.66
2023-05-20T22:25:12.618Z,102222.38
2023-05-20T22:27:42.869Z,102205.91
2023-05-20T22:30:11.813Z,102219.09
2023-05-20T22:32:41.273Z,102204.78
2023-05-20T22:35:10.220Z,102199.19
2023-05-20T22:37:38.002Z,102182.06
2023-05-20T22:40:07.234Z,102185.84
2023-05-20T22:42:34.996Z,102172.31
2023-05-20T22:45:02.767Z,102154.91
2023-05-20T22:47:30.577Z,102146.09
2023-05-20T22:50:02.336Z,102151.47
2023-05-20T22:52:30.678Z,102131.06
2023-05-20T22:54:58.750Z,102143.59
2023-05-20T22:57:27.423Z,102145.03
2023-05-20T22:59:55.417Z,102134.78
2023-05-20T23:02:23.822Z,102136.53
2023-05-20T23:04:51.949Z,102132.44
2023-05-20T23:07:21.811Z,102122.56
2023-05-20T23:09:49.729Z,102098.97
2023-05-20T23:12:17.477Z,102092.78
2023-05-20T23:14:45.267Z,102083.53
2023-05-20T23:17:14.272Z,102079.06
2023-05-20T23:19:42.943Z,102063.75
2023-05-20T23:22:10.715Z,102060.69
2023-05-20T23:24:39.828Z,102061.28
2023-05-20T23:27:07.843Z,102057.53
2023-05-20T23:29:35.724Z,102047.94
2023-05-20T23:32:03.514Z,102055.13
2023-05-20T23:34:31.643Z,102066.44
2023-05-20T23:36:59.426Z,102050.03
2023-05-20T23:39:27.456Z,102029.78
2023-05-20T23:41:56.608Z,102034.59
2023-05-20T23:44:24.361Z,102024.53
2023-05-20T23:46:52.103Z,102034.53
2023-05-20T23:49:22.485Z,102031.94
2023-05-20T23:51:50.209Z,102002.41
2023-05-20T23:54:18.008Z,102009.63
2023-05-20T23:56:45.799Z,102005.63
2023-05-20T23:59:14.960Z,102013.16
